sensor_id;sensor_type;location;lat;lon;timestamp;temperature;humidity
6014;DHT22;3035;49.928;8.410;2024-02-26T00:01:47;7.10;99.90
6014;DHT22;3035;49.928;8.410;2024-02-26T00:04:14;7.10;99.90
6014;DHT22;3035;49.928;8.410;2024-02-26T00:06:42;7.10;99.90
6014;DHT22;3035;49.928;8.410;2024-02-26T00:09:10;7.20;99.90
6014;DHT22;3035;49.928;8.410;2024-02-26T00:11:37;7.20;99.90
6014;DHT22;3035;49.928;8.410;2024-02-26T00:14:04;7.20;99.90
6014;DHT22;3035;49.928;8.410;2024-02-26T00:16:32;7.20;99.90
6014;DHT22;3035;49.928;8.410;2024-02-26T00:18:59;7.20;99.90
6014;DHT22;3035;49.928;8.410;2024-02-26T00:21:27;7.20;99.90
6014;DHT22;3035;49.928;8.410;2024-02-26T00:23:54;7.30;99.90
6014;DHT22;3035;49.928;8.410;2024-02-26T00:26:21;7.30;99.90
6014;DHT22;3035;49.928;8.410;2024-02-26T00:28:49;7.30;99.90
6014;DHT22;3035;49.928;8.410;2024-02-26T00:31:16;7.20;99.90
6014;DHT22;3035;49.928;8.410;2024-02-26T00:33:44;7.30;99.90
6014;DHT22;3035;49.928;8.410;2024-02-26T00:36:11;7.20;99.90
6014;DHT22;3035;49.928;8.410;2024-02-26T00:38:39;7.20;99.90
6014;DHT22;3035;49.928;8.410;2024-02-26T00:41:06;7.10;99.90
6014;DHT22;3035;49.928;8.410;2024-02-26T00:43:33;7.20;99.90
6014;DHT22;3035;49.928;8.410;2024-02-26T00:46:01;7.20;99.90
6014;DHT22;3035;49.928;8.410;2024-02-26T00:48:28;7.20;99.90
6014;DHT22;3035;49.928;8.410;2024-02-26T00:50:56;7.20;99.90
6014;DHT22;3035;49.928;8.410;2024-02-26T00:53:23;7.20;99.90
6014;DHT22;3035;49.928;8.410;2024-02-26T00:55:51;7.20;99.90
6014;DHT22;3035;49.928;8.410;2024-02-26T00:58:18;7.20;99.90
6014;DHT22;3035;49.928;8.410;2024-02-26T01:00:45;7.20;99.90
6014;DHT22;3035;49.928;8.410;2024-02-26T01:03:13;7.10;99.90
6014;DHT22;3035;49.928;8.410;2024-02-26T01:05:40;7.10;99.90
6014;DHT22;3035;49.928;8.410;2024-02-26T01:08:08;7.10;99.90
6014;DHT22;3035;49.928;8.410;2024-02-26T01:10:35;7.10;99.90
6014;DHT22;3035;49.928;8.410;2024-02-26T01:13:03;7.10;99.90
6014;DHT22;3035;49.928;8.410;2024-02-26T01:15:30;7.10;99.90
6014;DHT22;3035;49.928;8.410;2024-02-26T01:17:57;7.20;99.90
6014;DHT22;3035;49.928;8.410;2024-02-26T01:20:25;7.10;99.90
6014;DHT22;3035;49.928;8.410;2024-02-26T01:22:52;7.10;99.90
6014;DHT22;3035;49.928;8.410;2024-02-26T01:25:20;7.10;99.90
6014;DHT22;3035;49.928;8.410;2024-02-26T01:27:47;7.10;99.90
6014;DHT22;3035;49.928;8.410;2024-02-26T01:30:15;7.10;99.90
6014;DHT22;3035;49.928;8.410;2024-02-26T01:32:42;7.00;99.90
6014;DHT22;3035;49.928;8.410;2024-02-26T01:35:10;7.10;99.90
6014;DHT22;3035;49.928;8.410;2024-02-26T01:37:37;7.10;99.90
6014;DHT22;3035;49.928;8.410;2024-02-26T01:40:05;7.10;99.90
6014;DHT22;3035;49.928;8.410;2024-02-26T01:42:33;7.20;99.90
6014;DHT22;3035;49.928;8.410;2024-02-26T01:45:00;7.20;99.90
6014;DHT22;3035;49.928;8.410;2024-02-26T01:47:27;7.20;99.90
6014;DHT22;3035;49.928;8.410;2024-02-26T01:49:55;7.10;99.90
6014;DHT22;3035;49.928;8.410;2024-02-26T01:52:22;7.10;99.90
6014;DHT22;3035;49.928;8.410;2024-02-26T01:54:50;7.20;99.90
6014;DHT22;3035;49.928;8.410;2024-02-26T01:57:17;7.20;99.90
6014;DHT22;3035;49.928;8.410;2024-02-26T01:59:45;7.20;99.90
6014;DHT22;3035;49.928;8.410;2024-02-26T02:02:12;7.10;99.90
6014;DHT22;3035;49.928;8.410;2024-02-26T02:04:40;7.20;99.90
6014;DHT22;3035;49.928;8.410;2024-02-26T02:07:07;7.10;99.90
6014;DHT22;3035;49.928;8.410;2024-02-26T02:09:34;7.10;99.90
6014;DHT22;3035;49.928;8.410;2024-02-26T02:12:02;7.10;99.90
6014;DHT22;3035;49.928;8.410;2024-02-26T02:14:29;7.10;99.90
6014;DHT22;3035;49.928;8.410;2024-02-26T02:16:57;7.10;99.90
6014;DHT22;3035;49.928;8.410;2024-02-26T02:19:24;7.10;99.90
6014;DHT22;3035;49.928;8.410;2024-02-26T02:21:52;7.10;99.90
6014;DHT22;3035;49.928;8.410;2024-02-26T02:24:19;7.10;99.90
6014;DHT22;3035;49.928;8.410;2024-02-26T02:26:46;7.10;99.90
6014;DHT22;3035;49.928;8.410;2024-02-26T02:29:14;7.10;99.90
6014;DHT22;3035;49.928;8.410;2024-02-26T02:31:41;7.10;99.90
6014;DHT22;3035;49.928;8.410;2024-02-26T02:34:09;7.20;99.90
6014;DHT22;3035;49.928;8.410;2024-02-26T02:36:48;7.20;99.90
6014;DHT22;3035;49.928;8.410;2024-02-26T02:39:04;7.20;99.90
6014;DHT22;3035;49.928;8.410;2024-02-26T02:41:31;7.10;99.90
6014;DHT22;3035;49.928;8.410;2024-02-26T02:43:59;7.10;99.90
6014;DHT22;3035;49.928;8.410;2024-02-26T02:46:26;7.10;99.90
6014;DHT22;3035;49.928;8.410;2024-02-26T02:48:53;7.10;99.90
6014;DHT22;3035;49.928;8.410;2024-02-26T02:51:21;7.00;99.90
6014;DHT22;3035;49.928;8.410;2024-02-26T02:53:48;7.00;99.90
6014;DHT22;3035;49.928;8.410;2024-02-26T02:56:16;7.10;99.90
6014;DHT22;3035;49.928;8.410;2024-02-26T02:58:43;7.10;99.90
6014;DHT22;3035;49.928;8.410;2024-02-26T03:01:11;7.10;99.90
6014;DHT22;3035;49.928;8.410;2024-02-26T03:03:38;7.20;99.90
6014;DHT22;3035;49.928;8.410;2024-02-26T03:06:06;7.20;99.90
6014;DHT22;3035;49.928;8.410;2024-02-26T03:08:33;7.20;99.90
6014;DHT22;3035;49.928;8.410;2024-02-26T03:11:00;7.20;99.90
6014;DHT22;3035;49.928;8.410;2024-02-26T03:13:28;7.20;99.90
6014;DHT22;3035;49.928;8.410;2024-02-26T03:15:55;7.30;99.90
6014;DHT22;3035;49.928;8.410;2024-02-26T03:18:23;7.20;99.90
6014;DHT22;3035;49.928;8.410;2024-02-26T03:20:50;7.20;99.90
6014;DHT22;3035;49.928;8.410;2024-02-26T03:23:18;7.20;99.90
6014;DHT22;3035;49.928;8.410;2024-02-26T03:25:45;7.10;99.90
6014;DHT22;3035;49.928;8.410;2024-02-26T03:28:12;7.10;99.90
6014;DHT22;3035;49.928;8.410;2024-02-26T03:30:40;7.10;99.90
6014;DHT22;3035;49.928;8.410;2024-02-26T03:33:07;7.00;99.90
6014;DHT22;3035;49.928;8.410;2024-02-26T03:35:35;6.90;99.90
6014;DHT22;3035;49.928;8.410;2024-02-26T03:38:02;6.90;99.90
6014;DHT22;3035;49.928;8.410;2024-02-26T03:40:30;6.90;99.90
6014;DHT22;3035;49.928;8.410;2024-02-26T03:42:57;6.80;99.90
6014;DHT22;3035;49.928;8.410;2024-02-26T03:45:24;6.80;99.90
6014;DHT22;3035;49.928;8.410;2024-02-26T03:47:52;6.80;99.90
6014;DHT22;3035;49.928;8.410;2024-02-26T03:50:19;6.80;99.90
6014;DHT22;3035;49.928;8.410;2024-02-26T03:52:47;6.80;99.90
6014;DHT22;3035;49.928;8.410;2024-02-26T03:55:14;6.70;99.90
6014;DHT22;3035;49.928;8.410;2024-02-26T03:57:42;6.70;99.90
6014;DHT22;3035;49.928;8.410;2024-02-26T04:00:10;6.70;99.90
6014;DHT22;3035;49.928;8.410;2024-02-26T04:02:37;6.70;99.90
6014;DHT22;3035;49.928;8.410;2024-02-26T04:05:05;6.70;99.90
6014;DHT22;3035;49.928;8.410;2024-02-26T04:07:32;6.60;99.90
6014;DHT22;3035;49.928;8.410;2024-02-26T04:10:00;6.60;99.90
6014;DHT22;3035;49.928;8.410;2024-02-26T04:12:27;6.60;99.90
6014;DHT22;3035;49.928;8.410;2024-02-26T04:14:55;6.50;99.90
6014;DHT22;3035;49.928;8.410;2024-02-26T04:17:22;6.40;99.90
6014;DHT22;3035;49.928;8.410;2024-02-26T04:19:49;6.40;99.90
6014;DHT22;3035;49.928;8.410;2024-02-26T04:22:17;6.40;99.90
6014;DHT22;3035;49.928;8.410;2024-02-26T04:24:44;6.40;99.90
6014;DHT22;3035;49.928;8.410;2024-02-26T04:27:12;6.40;99.90
6014;DHT22;3035;49.928;8.410;2024-02-26T04:29:39;6.30;99.90
6014;DHT22;3035;49.928;8.410;2024-02-26T04:32:07;6.20;99.90
6014;DHT22;3035;49.928;8.410;2024-02-26T04:34:34;6.30;99.90
6014;DHT22;3035;49.928;8.410;2024-02-26T04:37:02;6.40;99.90
6014;DHT22;3035;49.928;8.410;2024-02-26T04:39:29;6.40;99.90
6014;DHT22;3035;49.928;8.410;2024-02-26T04:41:56;6.40;99.90
6014;DHT22;3035;49.928;8.410;2024-02-26T04:44:24;6.40;99.90
6014;DHT22;3035;49.928;8.410;2024-02-26T04:46:51;6.30;99.90
6014;DHT22;3035;49.928;8.410;2024-02-26T04:49:19;6.40;99.90
6014;DHT22;3035;49.928;8.410;2024-02-26T04:51:46;6.40;99.90
6014;DHT22;3035;49.928;8.410;2024-02-26T04:54:14;6.30;99.90
6014;DHT22;3035;49.928;8.410;2024-02-26T04:56:41;6.30;99.90
6014;DHT22;3035;49.928;8.410;2024-02-26T04:59:08;6.30;99.90
6014;DHT22;3035;49.928;8.410;2024-02-26T05:01:36;6.40;99.90
6014;DHT22;3035;49.928;8.410;2024-02-26T05:04:03;6.40;99.90
6014;DHT22;3035;49.928;8.410;2024-02-26T05:06:31;6.30;99.90
6014;DHT22;3035;49.928;8.410;2024-02-26T05:08:58;6.30;99.90
6014;DHT22;3035;49.928;8.410;2024-02-26T05:11:26;6.30;99.90
6014;DHT22;3035;49.928;8.410;2024-02-26T05:13:53;6.30;99.90
6014;DHT22;3035;49.928;8.410;2024-02-26T05:16:20;6.30;99.90
6014;DHT22;3035;49.928;8.410;2024-02-26T05:18:48;6.40;99.90
6014;DHT22;3035;49.928;8.410;2024-02-26T05:21:15;6.30;99.90
6014;DHT22;3035;49.928;8.410;2024-02-26T05:23:43;6.30;99.90
6014;DHT22;3035;49.928;8.410;2024-02-26T05:26:10;6.40;99.90
6014;DHT22;3035;49.928;8.410;2024-02-26T05:28:38;6.20;99.90
6014;DHT22;3035;49.928;8.410;2024-02-26T05:31:05;6.20;99.90
6014;DHT22;3035;49.928;8.410;2024-02-26T05:33:33;6.30;99.90
6014;DHT22;3035;49.928;8.410;2024-02-26T05:36:00;6.40;99.90
6014;DHT22;3035;49.928;8.410;2024-02-26T05:38:27;6.20;99.90
6014;DHT22;3035;49.928;8.410;2024-02-26T05:40:55;6.20;99.90
6014;DHT22;3035;49.928;8.410;2024-02-26T05:43:22;6.10;99.90
6014;DHT22;3035;49.928;8.410;2024-02-26T05:45:50;6.10;99.90
6014;DHT22;3035;49.928;8.410;2024-02-26T05:48:17;6.10;99.90
6014;DHT22;3035;49.928;8.410;2024-02-26T05:50:45;6.10;99.90
6014;DHT22;3035;49.928;8.410;2024-02-26T05:53:12;6.10;99.90
6014;DHT22;3035;49.928;8.410;2024-02-26T05:55:39;6.20;99.90
6014;DHT22;3035;49.928;8.410;2024-02-26T05:58:07;6.20;99.90
6014;DHT22;3035;49.928;8.410;2024-02-26T06:00:34;6.10;99.90
6014;DHT22;3035;49.928;8.410;2024-02-26T06:03:02;6.10;99.90
6014;DHT22;3035;49.928;8.410;2024-02-26T06:05:29;6.20;99.90
6014;DHT22;3035;49.928;8.410;2024-02-26T06:07:57;6.20;99.90
6014;DHT22;3035;49.928;8.410;2024-02-26T06:10:24;6.10;99.90
6014;DHT22;3035;49.928;8.410;2024-02-26T06:12:51;6.20;99.90
6014;DHT22;3035;49.928;8.410;2024-02-26T06:15:19;6.10;99.90
6014;DHT22;3035;49.928;8.410;2024-02-26T06:17:46;6.10;99.90
6014;DHT22;3035;49.928;8.410;2024-02-26T06:20:14;6.10;99.90
6014;DHT22;3035;49.928;8.410;2024-02-26T06:22:41;6.10;99.90
6014;DHT22;3035;49.928;8.410;2024-02-26T06:25:09;6.20;99.90
6014;DHT22;3035;49.928;8.410;2024-02-26T06:27:36;6.20;99.90
6014;DHT22;3035;49.928;8.410;2024-02-26T06:30:04;6.20;99.90
6014;DHT22;3035;49.928;8.410;2024-02-26T06:32:32;6.10;99.90
6014;DHT22;3035;49.928;8.410;2024-02-26T06:34:59;6.10;99.90
6014;DHT22;3035;49.928;8.410;2024-02-26T06:37:26;6.10;99.90
6014;DHT22;3035;49.928;8.410;2024-02-26T06:39:54;6.10;99.90
6014;DHT22;3035;49.928;8.410;2024-02-26T06:42:21;6.10;99.90
6014;DHT22;3035;49.928;8.410;2024-02-26T06:44:49;6.10;99.90
6014;DHT22;3035;49.928;8.410;2024-02-26T06:47:16;6.10;99.90
6014;DHT22;3035;49.928;8.410;2024-02-26T06:49:44;6.10;99.90
6014;DHT22;3035;49.928;8.410;2024-02-26T06:52:11;6.10;99.90
6014;DHT22;3035;49.928;8.410;2024-02-26T06:54:38;6.10;99.90
6014;DHT22;3035;49.928;8.410;2024-02-26T06:57:06;6.10;99.90
6014;DHT22;3035;49.928;8.410;2024-02-26T06:59:33;6.00;99.90
6014;DHT22;3035;49.928;8.410;2024-02-26T07:02:01;6.10;99.90
6014;DHT22;3035;49.928;8.410;2024-02-26T07:04:28;6.20;99.90
6014;DHT22;3035;49.928;8.410;2024-02-26T07:06:56;6.20;99.90
6014;DHT22;3035;49.928;8.410;2024-02-26T07:09:23;6.20;99.90
6014;DHT22;3035;49.928;8.410;2024-02-26T07:11:51;6.20;99.90
6014;DHT22;3035;49.928;8.410;2024-02-26T07:14:18;6.20;99.90
6014;DHT22;3035;49.928;8.410;2024-02-26T07:16:45;6.30;99.90
6014;DHT22;3035;49.928;8.410;2024-02-26T07:19:13;6.10;99.90
6014;DHT22;3035;49.928;8.410;2024-02-26T07:21:40;6.10;99.90
6014;DHT22;3035;49.928;8.410;2024-02-26T07:24:08;6.00;99.90
6014;DHT22;3035;49.928;8.410;2024-02-26T07:26:35;6.00;99.90
6014;DHT22;3035;49.928;8.410;2024-02-26T07:29:03;6.10;99.90
6014;DHT22;3035;49.928;8.410;2024-02-26T07:31:30;6.40;99.90
6014;DHT22;3035;49.928;8.410;2024-02-26T07:33:57;6.30;99.90
6014;DHT22;3035;49.928;8.410;2024-02-26T07:36:25;6.20;99.90
6014;DHT22;3035;49.928;8.410;2024-02-26T07:38:52;6.20;99.90
6014;DHT22;3035;49.928;8.410;2024-02-26T07:41:20;6.30;99.90
6014;DHT22;3035;49.928;8.410;2024-02-26T07:43:47;6.40;99.90
6014;DHT22;3035;49.928;8.410;2024-02-26T07:46:15;6.50;99.90
6014;DHT22;3035;49.928;8.410;2024-02-26T07:48:42;6.40;99.90
6014;DHT22;3035;49.928;8.410;2024-02-26T07:51:11;6.20;99.90
6014;DHT22;3035;49.928;8.410;2024-02-26T07:53:37;6.40;99.90
6014;DHT22;3035;49.928;8.410;2024-02-26T07:56:04;6.50;99.90
6014;DHT22;3035;49.928;8.410;2024-02-26T07:58:33;6.70;99.90
6014;DHT22;3035;49.928;8.410;2024-02-26T08:01:00;6.50;99.90
6014;DHT22;3035;49.928;8.410;2024-02-26T08:03:27;6.50;99.90
6014;DHT22;3035;49.928;8.410;2024-02-26T08:05:55;6.60;99.90
6014;DHT22;3035;49.928;8.410;2024-02-26T08:08:22;6.60;99.90
6014;DHT22;3035;49.928;8.410;2024-02-26T08:10:50;6.50;99.90
6014;DHT22;3035;49.928;8.410;2024-02-26T08:13:17;6.50;99.90
6014;DHT22;3035;49.928;8.410;2024-02-26T08:15:45;6.40;99.90
6014;DHT22;3035;49.928;8.410;2024-02-26T08:18:12;6.60;99.90
6014;DHT22;3035;49.928;8.410;2024-02-26T08:20:39;6.60;99.90
6014;DHT22;3035;49.928;8.410;2024-02-26T08:23:07;6.50;99.90
6014;DHT22;3035;49.928;8.410;2024-02-26T08:25:34;6.50;99.90
6014;DHT22;3035;49.928;8.410;2024-02-26T08:28:02;6.60;99.90
6014;DHT22;3035;49.928;8.410;2024-02-26T08:30:29;6.50;99.90
6014;DHT22;3035;49.928;8.410;2024-02-26T08:32:57;6.50;99.90
6014;DHT22;3035;49.928;8.410;2024-02-26T08:35:24;6.40;99.90
6014;DHT22;3035;49.928;8.410;2024-02-26T08:37:52;6.60;99.90
6014;DHT22;3035;49.928;8.410;2024-02-26T08:40:19;6.80;99.90
6014;DHT22;3035;49.928;8.410;2024-02-26T08:42:46;6.90;99.90
6014;DHT22;3035;49.928;8.410;2024-02-26T08:45:14;7.00;99.90
6014;DHT22;3035;49.928;8.410;2024-02-26T08:47:41;7.00;99.90
6014;DHT22;3035;49.928;8.410;2024-02-26T08:50:09;6.80;99.90
6014;DHT22;3035;49.928;8.410;2024-02-26T08:52:36;6.70;99.90
6014;DHT22;3035;49.928;8.410;2024-02-26T08:55:04;6.60;99.90
6014;DHT22;3035;49.928;8.410;2024-02-26T08:57:31;6.60;99.90
6014;DHT22;3035;49.928;8.410;2024-02-26T08:59:59;6.60;99.90
6014;DHT22;3035;49.928;8.410;2024-02-26T09:02:27;6.80;99.90
6014;DHT22;3035;49.928;8.410;2024-02-26T09:04:54;7.10;99.90
6014;DHT22;3035;49.928;8.410;2024-02-26T09:07:22;7.10;99.90
6014;DHT22;3035;49.928;8.410;2024-02-26T09:09:49;7.00;99.90
6014;DHT22;3035;49.928;8.410;2024-02-26T09:12:16;7.00;99.90
6014;DHT22;3035;49.928;8.410;2024-02-26T09:14:44;6.90;99.90
6014;DHT22;3035;49.928;8.410;2024-02-26T09:17:11;7.10;99.90
6014;DHT22;3035;49.928;8.410;2024-02-26T09:19:39;7.20;99.90
6014;DHT22;3035;49.928;8.410;2024-02-26T09:22:06;7.30;99.90
6014;DHT22;3035;49.928;8.410;2024-02-26T09:24:34;7.20;99.90
6014;DHT22;3035;49.928;8.410;2024-02-26T09:27:01;7.30;99.90
6014;DHT22;3035;49.928;8.410;2024-02-26T09:29:28;7.40;99.90
6014;DHT22;3035;49.928;8.410;2024-02-26T09:31:56;7.20;99.90
6014;DHT22;3035;49.928;8.410;2024-02-26T09:34:23;7.40;99.90
6014;DHT22;3035;49.928;8.410;2024-02-26T09:36:51;7.40;99.90
6014;DHT22;3035;49.928;8.410;2024-02-26T09:39:18;7.20;99.90
6014;DHT22;3035;49.928;8.410;2024-02-26T09:41:46;7.30;99.90
6014;DHT22;3035;49.928;8.410;2024-02-26T09:44:14;7.40;99.90
6014;DHT22;3035;49.928;8.410;2024-02-26T09:46:41;7.40;99.90
6014;DHT22;3035;49.928;8.410;2024-02-26T09:49:08;7.40;99.90
6014;DHT22;3035;49.928;8.410;2024-02-26T09:51:35;7.50;99.90
6014;DHT22;3035;49.928;8.410;2024-02-26T09:54:03;7.50;99.90
6014;DHT22;3035;49.928;8.410;2024-02-26T09:56:30;7.60;99.90
6014;DHT22;3035;49.928;8.410;2024-02-26T09:58:58;7.50;99.90
6014;DHT22;3035;49.928;8.410;2024-02-26T10:01:25;7.60;99.90
6014;DHT22;3035;49.928;8.410;2024-02-26T10:03:56;7.60;99.90
6014;DHT22;3035;49.928;8.410;2024-02-26T10:06:24;8.00;99.90
6014;DHT22;3035;49.928;8.410;2024-02-26T10:08:50;8.00;99.90
6014;DHT22;3035;49.928;8.410;2024-02-26T10:11:18;8.10;99.90
6014;DHT22;3035;49.928;8.410;2024-02-26T10:13:45;8.30;99.90
6014;DHT22;3035;49.928;8.410;2024-02-26T10:16:13;8.60;99.90
6014;DHT22;3035;49.928;8.410;2024-02-26T10:18:49;8.70;99.90
6014;DHT22;3035;49.928;8.410;2024-02-26T10:21:17;8.80;99.90
6014;DHT22;3035;49.928;8.410;2024-02-26T10:23:45;8.40;99.90
6014;DHT22;3035;49.928;8.410;2024-02-26T10:26:13;8.30;99.90
6014;DHT22;3035;49.928;8.410;2024-02-26T10:28:41;8.10;99.90
6014;DHT22;3035;49.928;8.410;2024-02-26T10:31:09;8.10;99.90
6014;DHT22;3035;49.928;8.410;2024-02-26T10:33:37;8.40;99.90
6014;DHT22;3035;49.928;8.410;2024-02-26T10:36:05;8.40;99.90
6014;DHT22;3035;49.928;8.410;2024-02-26T10:38:33;8.70;99.90
6014;DHT22;3035;49.928;8.410;2024-02-26T10:41:01;8.90;99.90
6014;DHT22;3035;49.928;8.410;2024-02-26T10:43:28;8.60;99.90
6014;DHT22;3035;49.928;8.410;2024-02-26T10:45:56;8.50;99.90
6014;DHT22;3035;49.928;8.410;2024-02-26T10:48:23;8.50;99.90
6014;DHT22;3035;49.928;8.410;2024-02-26T10:50:50;8.60;99.90
6014;DHT22;3035;49.928;8.410;2024-02-26T10:53:21;9.00;99.90
6014;DHT22;3035;49.928;8.410;2024-02-26T10:55:52;9.20;99.90
6014;DHT22;3035;49.928;8.410;2024-02-26T10:58:16;9.10;99.90
6014;DHT22;3035;49.928;8.410;2024-02-26T11:00:43;9.20;99.90
6014;DHT22;3035;49.928;8.410;2024-02-26T11:03:11;9.20;99.90
6014;DHT22;3035;49.928;8.410;2024-02-26T11:05:38;9.50;99.90
6014;DHT22;3035;49.928;8.410;2024-02-26T11:08:06;9.20;99.90
6014;DHT22;3035;49.928;8.410;2024-02-26T11:10:33;9.50;99.90
6014;DHT22;3035;49.928;8.410;2024-02-26T11:13:01;9.40;99.90
6014;DHT22;3035;49.928;8.410;2024-02-26T11:15:28;9.30;99.90
6014;DHT22;3035;49.928;8.410;2024-02-26T11:17:56;9.40;99.90
6014;DHT22;3035;49.928;8.410;2024-02-26T11:20:23;9.50;99.90
6014;DHT22;3035;49.928;8.410;2024-02-26T11:22:50;9.70;99.90
6014;DHT22;3035;49.928;8.410;2024-02-26T11:25:18;9.60;99.90
6014;DHT22;3035;49.928;8.410;2024-02-26T11:27:51;9.40;99.90
6014;DHT22;3035;49.928;8.410;2024-02-26T11:30:17;9.40;99.90
6014;DHT22;3035;49.928;8.410;2024-02-26T11:32:44;9.60;99.90
6014;DHT22;3035;49.928;8.410;2024-02-26T11:35:11;9.60;99.90
6014;DHT22;3035;49.928;8.410;2024-02-26T11:37:39;9.90;99.90
6014;DHT22;3035;49.928;8.410;2024-02-26T11:40:09;10.30;99.90
6014;DHT22;3035;49.928;8.410;2024-02-26T11:42:35;10.30;99.90
6014;DHT22;3035;49.928;8.410;2024-02-26T11:45:02;10.50;99.90
6014;DHT22;3035;49.928;8.410;2024-02-26T11:47:30;10.70;99.90
6014;DHT22;3035;49.928;8.410;2024-02-26T11:49:57;10.70;99.90
6014;DHT22;3035;49.928;8.410;2024-02-26T11:52:25;10.60;99.90
6014;DHT22;3035;49.928;8.410;2024-02-26T11:54:53;10.60;99.90
6014;DHT22;3035;49.928;8.410;2024-02-26T11:57:29;10.50;99.90
6014;DHT22;3035;49.928;8.410;2024-02-26T11:59:56;10.70;99.90
6014;DHT22;3035;49.928;8.410;2024-02-26T12:05:02;10.20;99.90
6014;DHT22;3035;49.928;8.410;2024-02-26T12:07:30;10.40;99.90
6014;DHT22;3035;49.928;8.410;2024-02-26T12:12:39;10.50;99.90
6014;DHT22;3035;49.928;8.410;2024-02-26T12:15:07;10.50;99.90
6014;DHT22;3035;49.928;8.410;2024-02-26T12:17:34;10.40;99.90
6014;DHT22;3035;49.928;8.410;2024-02-26T12:20:09;10.50;99.90
6014;DHT22;3035;49.928;8.410;2024-02-26T12:22:37;10.50;99.90
6014;DHT22;3035;49.928;8.410;2024-02-26T12:25:03;10.30;99.90
6014;DHT22;3035;49.928;8.410;2024-02-26T12:27:31;10.20;99.90
6014;DHT22;3035;49.928;8.410;2024-02-26T12:29:58;10.30;99.90
6014;DHT22;3035;49.928;8.410;2024-02-26T12:32:26;10.40;99.90
6014;DHT22;3035;49.928;8.410;2024-02-26T12:34:53;10.60;99.90
6014;DHT22;3035;49.928;8.410;2024-02-26T12:37:21;10.70;99.90
6014;DHT22;3035;49.928;8.410;2024-02-26T12:39:48;10.50;99.90
6014;DHT22;3035;49.928;8.410;2024-02-26T12:42:16;10.60;99.90
6014;DHT22;3035;49.928;8.410;2024-02-26T12:44:44;10.90;99.90
6014;DHT22;3035;49.928;8.410;2024-02-26T12:47:10;11.30;99.90
6014;DHT22;3035;49.928;8.410;2024-02-26T12:49:38;11.50;99.90
6014;DHT22;3035;49.928;8.410;2024-02-26T12:52:05;11.60;99.90
6014;DHT22;3035;49.928;8.410;2024-02-26T12:54:33;11.50;99.90
6014;DHT22;3035;49.928;8.410;2024-02-26T12:57:00;11.60;99.90
6014;DHT22;3035;49.928;8.410;2024-02-26T12:59:28;11.60;99.90
6014;DHT22;3035;49.928;8.410;2024-02-26T13:01:55;11.30;99.90
6014;DHT22;3035;49.928;8.410;2024-02-26T13:04:23;11.10;99.90
6014;DHT22;3035;49.928;8.410;2024-02-26T13:06:50;11.40;99.90
6014;DHT22;3035;49.928;8.410;2024-02-26T13:09:17;11.70;99.90
6014;DHT22;3035;49.928;8.410;2024-02-26T13:11:45;11.30;99.90
6014;DHT22;3035;49.928;8.410;2024-02-26T13:14:19;11.70;99.90
6014;DHT22;3035;49.928;8.410;2024-02-26T13:16:54;11.70;99.90
6014;DHT22;3035;49.928;8.410;2024-02-26T13:19:13;11.70;99.90
6014;DHT22;3035;49.928;8.410;2024-02-26T13:21:40;11.70;99.90
6014;DHT22;3035;49.928;8.410;2024-02-26T13:24:08;11.80;99.90
6014;DHT22;3035;49.928;8.410;2024-02-26T13:26:35;11.60;99.90
6014;DHT22;3035;49.928;8.410;2024-02-26T13:29:03;11.50;99.90
6014;DHT22;3035;49.928;8.410;2024-02-26T13:31:30;11.70;99.90
6014;DHT22;3035;49.928;8.410;2024-02-26T13:33:58;12.00;99.90
6014;DHT22;3035;49.928;8.410;2024-02-26T13:36:25;12.00;99.90
6014;DHT22;3035;49.928;8.410;2024-02-26T13:38:53;12.20;99.90
6014;DHT22;3035;49.928;8.410;2024-02-26T13:41:20;12.40;99.90
6014;DHT22;3035;49.928;8.410;2024-02-26T13:43:47;12.80;99.90
6014;DHT22;3035;49.928;8.410;2024-02-26T13:46:15;12.90;99.90
6014;DHT22;3035;49.928;8.410;2024-02-26T13:48:42;11.80;99.90
6014;DHT22;3035;49.928;8.410;2024-02-26T13:51:10;11.60;99.90
6014;DHT22;3035;49.928;8.410;2024-02-26T13:53:37;11.40;99.90
6014;DHT22;3035;49.928;8.410;2024-02-26T13:56:05;11.60;99.90
6014;DHT22;3035;49.928;8.410;2024-02-26T13:58:32;11.30;99.90
6014;DHT22;3035;49.928;8.410;2024-02-26T14:00:59;11.70;99.90
6014;DHT22;3035;49.928;8.410;2024-02-26T14:03:27;12.00;99.90
6014;DHT22;3035;49.928;8.410;2024-02-26T14:05:54;12.10;99.90
6014;DHT22;3035;49.928;8.410;2024-02-26T14:08:22;12.00;99.90
6014;DHT22;3035;49.928;8.410;2024-02-26T14:10:49;11.40;99.90
6014;DHT22;3035;49.928;8.410;2024-02-26T14:13:17;11.40;99.90
6014;DHT22;3035;49.928;8.410;2024-02-26T14:15:44;11.40;99.90
6014;DHT22;3035;49.928;8.410;2024-02-26T14:18:11;11.30;99.90
6014;DHT22;3035;49.928;8.410;2024-02-26T14:20:39;11.30;99.90
6014;DHT22;3035;49.928;8.410;2024-02-26T14:23:06;11.10;99.90
6014;DHT22;3035;49.928;8.410;2024-02-26T14:25:34;11.10;99.90
6014;DHT22;3035;49.928;8.410;2024-02-26T14:28:01;11.20;99.90
6014;DHT22;3035;49.928;8.410;2024-02-26T14:30:29;11.20;99.90
6014;DHT22;3035;49.928;8.410;2024-02-26T14:32:56;11.10;99.90
6014;DHT22;3035;49.928;8.410;2024-02-26T14:35:24;11.20;99.90
6014;DHT22;3035;49.928;8.410;2024-02-26T14:37:51;11.10;99.90
6014;DHT22;3035;49.928;8.410;2024-02-26T14:40:18;11.10;99.90
6014;DHT22;3035;49.928;8.410;2024-02-26T14:42:46;11.00;99.90
6014;DHT22;3035;49.928;8.410;2024-02-26T14:45:13;11.20;99.90
6014;DHT22;3035;49.928;8.410;2024-02-26T14:47:41;11.00;99.90
6014;DHT22;3035;49.928;8.410;2024-02-26T14:50:08;10.80;99.90
6014;DHT22;3035;49.928;8.410;2024-02-26T14:52:36;10.80;99.90
6014;DHT22;3035;49.928;8.410;2024-02-26T14:55:03;10.90;99.90
6014;DHT22;3035;49.928;8.410;2024-02-26T14:57:31;11.10;99.90
6014;DHT22;3035;49.928;8.410;2024-02-26T14:59:58;11.20;99.90
6014;DHT22;3035;49.928;8.410;2024-02-26T15:02:26;11.30;99.90
6014;DHT22;3035;49.928;8.410;2024-02-26T15:04:53;10.90;99.90
6014;DHT22;3035;49.928;8.410;2024-02-26T15:07:21;10.90;99.90
6014;DHT22;3035;49.928;8.410;2024-02-26T15:09:48;10.80;99.90
6014;DHT22;3035;49.928;8.410;2024-02-26T15:12:15;10.90;99.90
6014;DHT22;3035;49.928;8.410;2024-02-26T15:14:43;11.00;99.90
6014;DHT22;3035;49.928;8.410;2024-02-26T15:17:10;11.20;99.90
6014;DHT22;3035;49.928;8.410;2024-02-26T15:19:38;11.70;99.90
6014;DHT22;3035;49.928;8.410;2024-02-26T15:22:05;11.80;99.90
6014;DHT22;3035;49.928;8.410;2024-02-26T15:24:33;11.70;99.90
6014;DHT22;3035;49.928;8.410;2024-02-26T15:27:00;11.70;99.90
6014;DHT22;3035;49.928;8.410;2024-02-26T15:29:27;11.40;99.90
6014;DHT22;3035;49.928;8.410;2024-02-26T15:31:55;11.20;99.90
6014;DHT22;3035;49.928;8.410;2024-02-26T15:34:22;11.10;99.90
6014;DHT22;3035;49.928;8.410;2024-02-26T15:36:50;11.10;99.90
6014;DHT22;3035;49.928;8.410;2024-02-26T15:39:17;11.10;99.90
6014;DHT22;3035;49.928;8.410;2024-02-26T15:41:45;11.30;99.90
6014;DHT22;3035;49.928;8.410;2024-02-26T15:44:12;11.40;99.90
6014;DHT22;3035;49.928;8.410;2024-02-26T15:46:41;11.40;99.90
6014;DHT22;3035;49.928;8.410;2024-02-26T15:49:08;11.30;99.90
6014;DHT22;3035;49.928;8.410;2024-02-26T15:51:36;11.10;99.90
6014;DHT22;3035;49.928;8.410;2024-02-26T15:54:03;11.10;99.90
6014;DHT22;3035;49.928;8.410;2024-02-26T15:56:30;10.90;99.90
6014;DHT22;3035;49.928;8.410;2024-02-26T15:58:58;11.00;99.90
6014;DHT22;3035;49.928;8.410;2024-02-26T16:01:25;10.90;99.90
6014;DHT22;3035;49.928;8.410;2024-02-26T16:03:53;10.90;99.90
6014;DHT22;3035;49.928;8.410;2024-02-26T16:08:53;10.90;99.90
6014;DHT22;3035;49.928;8.410;2024-02-26T16:11:21;10.90;99.90
6014;DHT22;3035;49.928;8.410;2024-02-26T16:13:48;10.70;99.90
6014;DHT22;3035;49.928;8.410;2024-02-26T16:16:16;10.70;99.90
6014;DHT22;3035;49.928;8.410;2024-02-26T16:18:43;10.70;99.90
6014;DHT22;3035;49.928;8.410;2024-02-26T16:21:10;10.70;99.90